sensor_id;sensor_type;location;lat;lon;timestamp;temperature;humidity
37972;DHT22;23794;48.234;8.344;2022-08-07T00:00:28;14.60;99.90
37972;DHT22;23794;48.234;8.344;2022-08-07T00:02:55;14.60;99.90
37972;DHT22;23794;48.234;8.344;2022-08-07T00:05:22;14.60;99.90
37972;DHT22;23794;48.234;8.344;2022-08-07T00:07:50;14.60;99.90
37972;DHT22;23794;48.234;8.344;2022-08-07T00:10:28;14.70;99.90
37972;DHT22;23794;48.234;8.344;2022-08-07T00:12:57;14.60;99.90
37972;DHT22;23794;48.234;8.344;2022-08-07T00:15:28;14.60;99.90
37972;DHT22;23794;48.234;8.344;2022-08-07T00:18:12;14.60;99.90
37972;DHT22;23794;48.234;8.344;2022-08-07T00:20:45;14.60;99.90
37972;DHT22;23794;48.234;8.344;2022-08-07T00:23:14;14.40;99.90
37972;DHT22;23794;48.234;8.344;2022-08-07T00:25:42;14.40;99.90
37972;DHT22;23794;48.234;8.344;2022-08-07T00:28:18;14.40;99.90
37972;DHT22;23794;48.234;8.344;2022-08-07T00:30:47;14.30;99.90
37972;DHT22;23794;48.234;8.344;2022-08-07T00:33:14;14.30;99.90
37972;DHT22;23794;48.234;8.344;2022-08-07T00:35:41;14.30;99.90
37972;DHT22;23794;48.234;8.344;2022-08-07T00:38:15;14.40;99.90
37972;DHT22;23794;48.234;8.344;2022-08-07T00:40:57;14.30;99.90
37972;DHT22;23794;48.234;8.344;2022-08-07T00:43:23;14.30;99.90
37972;DHT22;23794;48.234;8.344;2022-08-07T00:46:10;14.20;99.90
37972;DHT22;23794;48.234;8.344;2022-08-07T00:48:37;14.00;99.90
37972;DHT22;23794;48.234;8.344;2022-08-07T00:51:08;14.00;99.90
37972;DHT22;23794;48.234;8.344;2022-08-07T00:53:34;14.10;99.90
37972;DHT22;23794;48.234;8.344;2022-08-07T00:56:16;14.10;99.90
37972;DHT22;23794;48.234;8.344;2022-08-07T00:58:43;14.10;99.90
37972;DHT22;23794;48.234;8.344;2022-08-07T01:01:15;14.10;99.90
37972;DHT22;23794;48.234;8.344;2022-08-07T01:03:42;14.10;99.90
37972;DHT22;23794;48.234;8.344;2022-08-07T01:06:27;14.00;99.90
37972;DHT22;23794;48.234;8.344;2022-08-07T01:08:55;14.00;99.90
37972;DHT22;23794;48.234;8.344;2022-08-07T01:11:26;14.00;99.90
37972;DHT22;23794;48.234;8.344;2022-08-07T01:14:13;14.00;99.90
37972;DHT22;23794;48.234;8.344;2022-08-07T01:16:41;14.00;99.90
37972;DHT22;23794;48.234;8.344;2022-08-07T01:19:08;13.90;99.90
37972;DHT22;23794;48.234;8.344;2022-08-07T01:21:45;13.90;99.90
37972;DHT22;23794;48.234;8.344;2022-08-07T01:24:13;13.70;99.90
37972;DHT22;23794;48.234;8.344;2022-08-07T01:26:46;13.70;99.90
37972;DHT22;23794;48.234;8.344;2022-08-07T01:29:18;13.70;99.90
37972;DHT22;23794;48.234;8.344;2022-08-07T01:31:48;13.60;99.90
37972;DHT22;23794;48.234;8.344;2022-08-07T01:34:15;13.50;99.90
37972;DHT22;23794;48.234;8.344;2022-08-07T01:36:45;13.50;99.90
37972;DHT22;23794;48.234;8.344;2022-08-07T01:39:26;13.50;99.90
37972;DHT22;23794;48.234;8.344;2022-08-07T01:42:20;13.50;99.90
37972;DHT22;23794;48.234;8.344;2022-08-07T01:45:09;13.50;99.90
37972;DHT22;23794;48.234;8.344;2022-08-07T01:47:46;13.50;99.90
37972;DHT22;23794;48.234;8.344;2022-08-07T01:50:35;13.50;99.90
37972;DHT22;23794;48.234;8.344;2022-08-07T01:53:02;13.40;99.90
37972;DHT22;23794;48.234;8.344;2022-08-07T01:55:36;13.40;99.90
37972;DHT22;23794;48.234;8.344;2022-08-07T01:58:05;13.40;99.90
37972;DHT22;23794;48.234;8.344;2022-08-07T02:00:54;13.40;99.90
37972;DHT22;23794;48.234;8.344;2022-08-07T02:03:38;13.40;99.90
37972;DHT22;23794;48.234;8.344;2022-08-07T02:06:16;13.40;99.90
37972;DHT22;23794;48.234;8.344;2022-08-07T02:09:02;13.20;99.90
37972;DHT22;23794;48.234;8.344;2022-08-07T02:11:35;13.20;99.90
37972;DHT22;23794;48.234;8.344;2022-08-07T02:14:25;13.20;99.90
37972;DHT22;23794;48.234;8.344;2022-08-07T02:17:12;13.20;99.90
37972;DHT22;23794;48.234;8.344;2022-08-07T02:19:50;13.10;99.90
37972;DHT22;23794;48.234;8.344;2022-08-07T02:22:36;13.00;99.90
37972;DHT22;23794;48.234;8.344;2022-08-07T02:25:07;13.10;99.90
37972;DHT22;23794;48.234;8.344;2022-08-07T02:27:51;13.10;99.90
37972;DHT22;23794;48.234;8.344;2022-08-07T02:30:20;13.00;99.90
37972;DHT22;23794;48.234;8.344;2022-08-07T02:32:50;12.90;99.90
37972;DHT22;23794;48.234;8.344;2022-08-07T02:35:35;12.90;99.90
37972;DHT22;23794;48.234;8.344;2022-08-07T02:38:26;12.90;99.90
37972;DHT22;23794;48.234;8.344;2022-08-07T02:40:59;12.90;99.90
37972;DHT22;23794;48.234;8.344;2022-08-07T02:43:31;12.80;99.90
37972;DHT22;23794;48.234;8.344;2022-08-07T02:45:58;12.90;99.90
37972;DHT22;23794;48.234;8.344;2022-08-07T02:48:30;12.80;99.90
37972;DHT22;23794;48.234;8.344;2022-08-07T02:51:02;12.90;99.90
37972;DHT22;23794;48.234;8.344;2022-08-07T02:53:31;12.80;99.90
37972;DHT22;23794;48.234;8.344;2022-08-07T02:56:06;12.80;99.90
37972;DHT22;23794;48.234;8.344;2022-08-07T02:58:46;12.80;99.90
37972;DHT22;23794;48.234;8.344;2022-08-07T03:01:17;12.80;99.90
37972;DHT22;23794;48.234;8.344;2022-08-07T03:04:08;12.70;99.90
37972;DHT22;23794;48.234;8.344;2022-08-07T03:06:42;12.80;99.90
37972;DHT22;23794;48.234;8.344;2022-08-07T03:09:12;12.90;99.90
37972;DHT22;23794;48.234;8.344;2022-08-07T03:11:40;12.80;99.90
37972;DHT22;23794;48.234;8.344;2022-08-07T03:14:26;12.80;99.90
37972;DHT22;23794;48.234;8.344;2022-08-07T03:16:54;12.70;99.90
37972;DHT22;23794;48.234;8.344;2022-08-07T03:19:21;12.60;99.90
37972;DHT22;23794;48.234;8.344;2022-08-07T03:21:49;12.50;99.90
37972;DHT22;23794;48.234;8.344;2022-08-07T03:24:18;12.50;99.90
37972;DHT22;23794;48.234;8.344;2022-08-07T03:26:54;12.50;99.90
37972;DHT22;23794;48.234;8.344;2022-08-07T03:29:36;12.50;99.90
37972;DHT22;23794;48.234;8.344;2022-08-07T03:32:07;12.60;99.90
37972;DHT22;23794;48.234;8.344;2022-08-07T03:34:39;12.60;99.90
37972;DHT22;23794;48.234;8.344;2022-08-07T03:37:29;12.50;99.90
37972;DHT22;23794;48.234;8.344;2022-08-07T03:40:03;12.60;99.90
37972;DHT22;23794;48.234;8.344;2022-08-07T03:42:42;12.60;99.90
37972;DHT22;23794;48.234;8.344;2022-08-07T03:45:11;12.50;99.90
37972;DHT22;23794;48.234;8.344;2022-08-07T03:47:59;12.50;99.90
37972;DHT22;23794;48.234;8.344;2022-08-07T03:50:27;12.50;99.90
37972;DHT22;23794;48.234;8.344;2022-08-07T03:52:56;12.60;99.90
37972;DHT22;23794;48.234;8.344;2022-08-07T03:55:23;12.60;99.90
37972;DHT22;23794;48.234;8.344;2022-08-07T03:58:10;12.60;99.90
37972;DHT22;23794;48.234;8.344;2022-08-07T04:00:58;12.70;99.90
37972;DHT22;23794;48.234;8.344;2022-08-07T04:03:28;12.70;99.90
37972;DHT22;23794;48.234;8.344;2022-08-07T04:06:15;12.60;99.90
37972;DHT22;23794;48.234;8.344;2022-08-07T04:09:02;12.80;99.90
37972;DHT22;23794;48.234;8.344;2022-08-07T04:11:31;12.80;99.90
37972;DHT22;23794;48.234;8.344;2022-08-07T04:14:17;12.80;99.90
37972;DHT22;23794;48.234;8.344;2022-08-07T04:17:05;12.80;99.90
37972;DHT22;23794;48.234;8.344;2022-08-07T04:19:50;12.80;99.90
37972;DHT22;23794;48.234;8.344;2022-08-07T04:22:24;12.80;99.90
37972;DHT22;23794;48.234;8.344;2022-08-07T04:24:58;12.80;99.90
37972;DHT22;23794;48.234;8.344;2022-08-07T04:27:28;12.80;99.90
37972;DHT22;23794;48.234;8.344;2022-08-07T04:30:12;12.70;99.90
37972;DHT22;23794;48.234;8.344;2022-08-07T04:33:08;12.70;99.90
37972;DHT22;23794;48.234;8.344;2022-08-07T04:35:45;12.50;99.90
37972;DHT22;23794;48.234;8.344;2022-08-07T04:38:19;12.30;99.90
37972;DHT22;23794;48.234;8.344;2022-08-07T04:40:47;12.30;99.90
37972;DHT22;23794;48.234;8.344;2022-08-07T04:43:21;12.40;99.90
37972;DHT22;23794;48.234;8.344;2022-08-07T04:46:12;12.50;99.90
37972;DHT22;23794;48.234;8.344;2022-08-07T04:49:15;12.50;99.90
37972;DHT22;23794;48.234;8.344;2022-08-07T04:54:32;12.70;99.90
37972;DHT22;23794;48.234;8.344;2022-08-07T04:59:57;12.60;99.90
37972;DHT22;23794;48.234;8.344;2022-08-07T05:02:53;12.60;99.90
37972;DHT22;23794;48.234;8.344;2022-08-07T05:05:30;12.70;99.90
37972;DHT22;23794;48.234;8.344;2022-08-07T05:08:25;12.70;99.90
37972;DHT22;23794;48.234;8.344;2022-08-07T05:11:19;12.70;99.90
37972;DHT22;23794;48.234;8.344;2022-08-07T05:13:54;12.80;99.90
37972;DHT22;23794;48.234;8.344;2022-08-07T05:16:43;12.90;99.90
37972;DHT22;23794;48.234;8.344;2022-08-07T05:19:19;13.00;99.90
37972;DHT22;23794;48.234;8.344;2022-08-07T05:21:59;13.00;99.90
37972;DHT22;23794;48.234;8.344;2022-08-07T05:24:33;13.10;99.90
37972;DHT22;23794;48.234;8.344;2022-08-07T05:27:07;13.10;99.90
37972;DHT22;23794;48.234;8.344;2022-08-07T05:29:54;13.20;99.90
37972;DHT22;23794;48.234;8.344;2022-08-07T05:32:22;13.30;99.90
37972;DHT22;23794;48.234;8.344;2022-08-07T05:34:51;13.40;99.90
37972;DHT22;23794;48.234;8.344;2022-08-07T05:37:19;13.50;99.90
37972;DHT22;23794;48.234;8.344;2022-08-07T05:39:59;13.50;99.90
37972;DHT22;23794;48.234;8.344;2022-08-07T05:42:44;13.60;99.90
37972;DHT22;23794;48.234;8.344;2022-08-07T05:45:22;13.70;99.90
37972;DHT22;23794;48.234;8.344;2022-08-07T05:48:11;13.70;99.80
37972;DHT22;23794;48.234;8.344;2022-08-07T05:50:43;13.80;99.50
37972;DHT22;23794;48.234;8.344;2022-08-07T05:53:12;14.00;99.80
37972;DHT22;23794;48.234;8.344;2022-08-07T05:56:00;14.20;99.80
37972;DHT22;23794;48.234;8.344;2022-08-07T05:58:34;14.30;99.10
37972;DHT22;23794;48.234;8.344;2022-08-07T06:01:07;14.30;99.80
37972;DHT22;23794;48.234;8.344;2022-08-07T06:03:38;14.40;98.70
37972;DHT22;23794;48.234;8.344;2022-08-07T06:06:26;14.50;98.40
37972;DHT22;23794;48.234;8.344;2022-08-07T06:09:00;14.60;98.70
37972;DHT22;23794;48.234;8.344;2022-08-07T06:11:33;14.70;98.60
37972;DHT22;23794;48.234;8.344;2022-08-07T06:14:01;14.80;98.80
37972;DHT22;23794;48.234;8.344;2022-08-07T06:16:50;14.90;97.80
37972;DHT22;23794;48.234;8.344;2022-08-07T06:19:30;14.90;98.30
37972;DHT22;23794;48.234;8.344;2022-08-07T06:22:17;15.10;97.80
37972;DHT22;23794;48.234;8.344;2022-08-07T06:25:01;15.20;98.30
37972;DHT22;23794;48.234;8.344;2022-08-07T06:27:29;15.30;98.30
37972;DHT22;23794;48.234;8.344;2022-08-07T06:30:16;15.40;97.60
37972;DHT22;23794;48.234;8.344;2022-08-07T06:33:03;15.50;97.80
37972;DHT22;23794;48.234;8.344;2022-08-07T06:35:43;15.70;97.90
37972;DHT22;23794;48.234;8.344;2022-08-07T06:38:14;15.80;96.90
37972;DHT22;23794;48.234;8.344;2022-08-07T06:40:47;16.00;97.00
37972;DHT22;23794;48.234;8.344;2022-08-07T06:43:18;16.10;97.20
37972;DHT22;23794;48.234;8.344;2022-08-07T06:46:04;16.30;97.30
37972;DHT22;23794;48.234;8.344;2022-08-07T06:48:37;16.40;98.10
37972;DHT22;23794;48.234;8.344;2022-08-07T06:51:09;16.40;98.40
37972;DHT22;23794;48.234;8.344;2022-08-07T06:53:40;16.40;98.30
37972;DHT22;23794;48.234;8.344;2022-08-07T06:56:30;16.50;98.50
37972;DHT22;23794;48.234;8.344;2022-08-07T06:59:31;16.80;98.00
37972;DHT22;23794;48.234;8.344;2022-08-07T07:02:21;16.90;98.60
37972;DHT22;23794;48.234;8.344;2022-08-07T07:05:08;16.80;98.30
37972;DHT22;23794;48.234;8.344;2022-08-07T07:07:38;16.90;98.80
37972;DHT22;23794;48.234;8.344;2022-08-07T07:10:29;16.80;99.00
37972;DHT22;23794;48.234;8.344;2022-08-07T07:13:05;17.00;99.30
37972;DHT22;23794;48.234;8.344;2022-08-07T07:15:38;17.10;99.20
37972;DHT22;23794;48.234;8.344;2022-08-07T07:18:10;17.10;99.50
37972;DHT22;23794;48.234;8.344;2022-08-07T07:20:54;17.30;99.30
37972;DHT22;23794;48.234;8.344;2022-08-07T07:23:22;17.20;99.70
37972;DHT22;23794;48.234;8.344;2022-08-07T07:26:10;17.20;99.90
37972;DHT22;23794;48.234;8.344;2022-08-07T07:29:02;17.30;99.90
37972;DHT22;23794;48.234;8.344;2022-08-07T07:31:51;17.40;99.90
37972;DHT22;23794;48.234;8.344;2022-08-07T07:34:26;17.60;99.90
37972;DHT22;23794;48.234;8.344;2022-08-07T07:36:57;17.60;99.90
37972;DHT22;23794;48.234;8.344;2022-08-07T07:39:45;17.80;99.90
37972;DHT22;23794;48.234;8.344;2022-08-07T07:42:21;18.00;99.90
37972;DHT22;23794;48.234;8.344;2022-08-07T07:45:00;18.10;99.90
37972;DHT22;23794;48.234;8.344;2022-08-07T07:47:27;18.20;99.90
37972;DHT22;23794;48.234;8.344;2022-08-07T07:50:08;18.40;99.90
37972;DHT22;23794;48.234;8.344;2022-08-07T07:52:56;18.50;99.90
37972;DHT22;23794;48.234;8.344;2022-08-07T07:55:26;18.50;99.90
37972;DHT22;23794;48.234;8.344;2022-08-07T07:58:03;18.60;99.90
37972;DHT22;23794;48.234;8.344;2022-08-07T08:00:30;18.60;99.80
37972;DHT22;23794;48.234;8.344;2022-08-07T08:03:13;18.80;99.80
37972;DHT22;23794;48.234;8.344;2022-08-07T08:06:01;18.90;99.70
37972;DHT22;23794;48.234;8.344;2022-08-07T08:08:28;19.20;99.30
37972;DHT22;23794;48.234;8.344;2022-08-07T08:11:02;19.30;98.90
37972;DHT22;23794;48.234;8.344;2022-08-07T08:13:29;19.50;98.80
37972;DHT22;23794;48.234;8.344;2022-08-07T08:16:17;19.50;98.80
37972;DHT22;23794;48.234;8.344;2022-08-07T08:18:50;19.60;98.60
37972;DHT22;23794;48.234;8.344;2022-08-07T08:21:20;19.60;98.80
37972;DHT22;23794;48.234;8.344;2022-08-07T08:24:27;19.70;98.20
37972;DHT22;23794;48.234;8.344;2022-08-07T08:27:20;19.70;98.30
37972;DHT22;23794;48.234;8.344;2022-08-07T08:29:49;19.60;98.10
37972;DHT22;23794;48.234;8.344;2022-08-07T08:32:23;19.60;98.10
37972;DHT22;23794;48.234;8.344;2022-08-07T08:34:51;19.50;98.00
37972;DHT22;23794;48.234;8.344;2022-08-07T08:37:19;19.60;97.90
37972;DHT22;23794;48.234;8.344;2022-08-07T08:40:08;19.70;97.70
37972;DHT22;23794;48.234;8.344;2022-08-07T08:42:42;19.70;97.50
37972;DHT22;23794;48.234;8.344;2022-08-07T08:50:28;20.00;97.40
37972;DHT22;23794;48.234;8.344;2022-08-07T08:53:11;20.00;97.00
37972;DHT22;23794;48.234;8.344;2022-08-07T08:55:47;20.10;97.10
37972;DHT22;23794;48.234;8.344;2022-08-07T09:01:55;20.50;96.20
37972;DHT22;23794;48.234;8.344;2022-08-07T09:04:17;20.60;95.90
37972;DHT22;23794;48.234;8.344;2022-08-07T09:17:30;20.90;95.40
37972;DHT22;23794;48.234;8.344;2022-08-07T09:20:26;21.10;94.90
37972;DHT22;23794;48.234;8.344;2022-08-07T09:23:05;21.30;94.80
37972;DHT22;23794;48.234;8.344;2022-08-07T09:25:57;21.30;94.80
37972;DHT22;23794;48.234;8.344;2022-08-07T09:28:28;21.50;94.60
37972;DHT22;23794;48.234;8.344;2022-08-07T09:31:35;21.60;94.10
37972;DHT22;23794;48.234;8.344;2022-08-07T09:37:35;21.70;94.30
37972;DHT22;23794;48.234;8.344;2022-08-07T09:45:46;21.80;92.60
37972;DHT22;23794;48.234;8.344;2022-08-07T09:51:30;21.60;92.30
37972;DHT22;23794;48.234;8.344;2022-08-07T09:54:25;21.60;92.00
37972;DHT22;23794;48.234;8.344;2022-08-07T10:14:03;22.40;89.60
37972;DHT22;23794;48.234;8.344;2022-08-07T10:19:18;22.80;90.30
37972;DHT22;23794;48.234;8.344;2022-08-07T10:21:51;22.90;89.10
37972;DHT22;23794;48.234;8.344;2022-08-07T10:30:00;23.40;86.80
37972;DHT22;23794;48.234;8.344;2022-08-07T10:38:28;23.50;83.60
37972;DHT22;23794;48.234;8.344;2022-08-07T10:46:43;23.90;84.10
37972;DHT22;23794;48.234;8.344;2022-08-07T10:49:34;24.00;84.00
37972;DHT22;23794;48.234;8.344;2022-08-07T10:55:28;24.70;81.60
37972;DHT22;23794;48.234;8.344;2022-08-07T10:58:08;24.20;83.00
37972;DHT22;23794;48.234;8.344;2022-08-07T11:00:45;24.10;82.50
37972;DHT22;23794;48.234;8.344;2022-08-07T11:03:37;24.40;82.70
37972;DHT22;23794;48.234;8.344;2022-08-07T11:06:22;24.60;82.50
37972;DHT22;23794;48.234;8.344;2022-08-07T11:11:30;24.50;81.40
37972;DHT22;23794;48.234;8.344;2022-08-07T11:14:06;24.80;81.30
37972;DHT22;23794;48.234;8.344;2022-08-07T11:17:04;24.70;81.00
37972;DHT22;23794;48.234;8.344;2022-08-07T11:19:37;24.60;80.30
37972;DHT22;23794;48.234;8.344;2022-08-07T11:22:09;24.60;80.80
37972;DHT22;23794;48.234;8.344;2022-08-07T11:30:14;25.10;79.20
37972;DHT22;23794;48.234;8.344;2022-08-07T11:32:46;25.00;79.00
37972;DHT22;23794;48.234;8.344;2022-08-07T11:35:27;24.70;78.90
37972;DHT22;23794;48.234;8.344;2022-08-07T11:38:07;24.80;79.10
37972;DHT22;23794;48.234;8.344;2022-08-07T11:44:13;24.60;78.90
37972;DHT22;23794;48.234;8.344;2022-08-07T11:49:17;25.40;78.90
37972;DHT22;23794;48.234;8.344;2022-08-07T11:52:18;25.40;77.20
37972;DHT22;23794;48.234;8.344;2022-08-07T11:57:43;24.90;77.70
37972;DHT22;23794;48.234;8.344;2022-08-07T12:06:19;25.70;77.90
37972;DHT22;23794;48.234;8.344;2022-08-07T12:09:14;26.20;75.60
37972;DHT22;23794;48.234;8.344;2022-08-07T12:14:51;25.00;76.40
37972;DHT22;23794;48.234;8.344;2022-08-07T12:17:29;25.10;77.00
37972;DHT22;23794;48.234;8.344;2022-08-07T12:20:07;24.80;77.10
37972;DHT22;23794;48.234;8.344;2022-08-07T12:23:07;25.20;77.40
37972;DHT22;23794;48.234;8.344;2022-08-07T12:28:55;26.00;75.00
37972;DHT22;23794;48.234;8.344;2022-08-07T12:31:30;26.50;75.70
37972;DHT22;23794;48.234;8.344;2022-08-07T12:34:20;26.70;73.20
37972;DHT22;23794;48.234;8.344;2022-08-07T12:36:51;26.20;73.60
37972;DHT22;23794;48.234;8.344;2022-08-07T12:39:19;25.40;74.60
37972;DHT22;23794;48.234;8.344;2022-08-07T12:42:07;25.00;75.30
37972;DHT22;23794;48.234;8.344;2022-08-07T12:44:39;25.50;74.30
37972;DHT22;23794;48.234;8.344;2022-08-07T12:47:16;25.80;73.80
37972;DHT22;23794;48.234;8.344;2022-08-07T12:52:47;25.80;73.70
37972;DHT22;23794;48.234;8.344;2022-08-07T12:55:34;26.50;72.70
37972;DHT22;23794;48.234;8.344;2022-08-07T12:58:19;27.10;71.30
37972;DHT22;23794;48.234;8.344;2022-08-07T13:01:02;27.20;70.80
37972;DHT22;23794;48.234;8.344;2022-08-07T13:09:49;28.00;69.50
37972;DHT22;23794;48.234;8.344;2022-08-07T13:15:25;27.90;68.00
37972;DHT22;23794;48.234;8.344;2022-08-07T13:20:44;27.20;68.90
37972;DHT22;23794;48.234;8.344;2022-08-07T13:23:25;26.60;69.10
37972;DHT22;23794;48.234;8.344;2022-08-07T13:26:32;26.00;69.50
37972;DHT22;23794;48.234;8.344;2022-08-07T13:31:35;27.10;67.90
37972;DHT22;23794;48.234;8.344;2022-08-07T13:34:25;27.20;67.90
37972;DHT22;23794;48.234;8.344;2022-08-07T13:42:53;28.40;66.10
37972;DHT22;23794;48.234;8.344;2022-08-07T13:45:21;28.00;64.70
37972;DHT22;23794;48.234;8.344;2022-08-07T13:48:09;26.40;66.40
37972;DHT22;23794;48.234;8.344;2022-08-07T13:50:59;25.20;68.30
37972;DHT22;23794;48.234;8.344;2022-08-07T13:53:52;25.50;68.50
37972;DHT22;23794;48.234;8.344;2022-08-07T13:56:27;26.00;68.10
37972;DHT22;23794;48.234;8.344;2022-08-07T13:59:14;27.10;67.90
37972;DHT22;23794;48.234;8.344;2022-08-07T14:01:59;28.20;65.40
37972;DHT22;23794;48.234;8.344;2022-08-07T14:04:35;28.60;63.50
37972;DHT22;23794;48.234;8.344;2022-08-07T14:07:16;28.60;63.50
37972;DHT22;23794;48.234;8.344;2022-08-07T14:09:44;28.90;63.00
37972;DHT22;23794;48.234;8.344;2022-08-07T14:12:40;29.30;62.40
37972;DHT22;23794;48.234;8.344;2022-08-07T14:15:39;29.10;61.70
37972;DHT22;23794;48.234;8.344;2022-08-07T14:18:14;28.80;61.80
37972;DHT22;23794;48.234;8.344;2022-08-07T14:20:59;28.80;61.10
37972;DHT22;23794;48.234;8.344;2022-08-07T14:23:56;28.80;61.10
37972;DHT22;23794;48.234;8.344;2022-08-07T14:26:29;29.60;61.20
37972;DHT22;23794;48.234;8.344;2022-08-07T14:28:59;29.90;59.30
37972;DHT22;23794;48.234;8.344;2022-08-07T14:31:46;29.80;59.30
37972;DHT22;23794;48.234;8.344;2022-08-07T14:34:24;30.20;59.40
37972;DHT22;23794;48.234;8.344;2022-08-07T14:36:55;30.60;58.50
37972;DHT22;23794;48.234;8.344;2022-08-07T14:39:22;30.20;57.50
37972;DHT22;23794;48.234;8.344;2022-08-07T14:42:10;29.50;58.10
37972;DHT22;23794;48.234;8.344;2022-08-07T14:44:55;29.90;58.00
37972;DHT22;23794;48.234;8.344;2022-08-07T14:47:43;30.50;57.70
37972;DHT22;23794;48.234;8.344;2022-08-07T14:50:12;30.10;56.60
37972;DHT22;23794;48.234;8.344;2022-08-07T14:52:45;30.20;57.40
37972;DHT22;23794;48.234;8.344;2022-08-07T14:55:15;30.50;56.90
37972;DHT22;23794;48.234;8.344;2022-08-07T14:57:48;31.00;56.40
37972;DHT22;23794;48.234;8.344;2022-08-07T15:00:28;31.30;55.80
37972;DHT22;23794;48.234;8.344;2022-08-07T15:02:57;30.60;55.30
37972;DHT22;23794;48.234;8.344;2022-08-07T15:05:25;30.00;55.40
37972;DHT22;23794;48.234;8.344;2022-08-07T15:07:56;29.60;55.50
37972;DHT22;23794;48.234;8.344;2022-08-07T15:10:24;29.90;55.70
37972;DHT22;23794;48.234;8.344;2022-08-07T15:12:59;30.20;55.30
37972;DHT22;23794;48.234;8.344;2022-08-07T15:18:14;29.40;55.80
37972;DHT22;23794;48.234;8.344;2022-08-07T15:21:24;29.60;55.10
37972;DHT22;23794;48.234;8.344;2022-08-07T15:24:13;29.80;55.30
37972;DHT22;23794;48.234;8.344;2022-08-07T15:29:32;30.00;54.70
37972;DHT22;23794;48.234;8.344;2022-08-07T15:32:20;30.40;54.00
37972;DHT22;23794;48.234;8.344;2022-08-07T15:35:04;29.80;54.20
37972;DHT22;23794;48.234;8.344;2022-08-07T15:37:33;29.30;54.40
37972;DHT22;23794;48.234;8.344;2022-08-07T15:40:21;28.80;55.00
37972;DHT22;23794;48.234;8.344;2022-08-07T15:43:04;28.10;55.70
37972;DHT22;23794;48.234;8.344;2022-08-07T15:45:58;27.40;55.70
37972;DHT22;23794;48.234;8.344;2022-08-07T15:48:50;26.60;56.30
37972;DHT22;23794;48.234;8.344;2022-08-07T15:51:29;25.90;57.40
37972;DHT22;23794;48.234;8.344;2022-08-07T15:54:16;25.70;57.40
37972;DHT22;23794;48.234;8.344;2022-08-07T15:56:43;25.40;57.90
37972;DHT22;23794;48.234;8.344;2022-08-07T15:59:13;25.20;57.90
37972;DHT22;23794;48.234;8.344;2022-08-07T16:02:05;24.90;58.10
37972;DHT22;23794;48.234;8.344;2022-08-07T16:04:35;24.50;58.70
37972;DHT22;23794;48.234;8.344;2022-08-07T16:07:03;24.40;59.10
37972;DHT22;23794;48.234;8.344;2022-08-07T16:09:52;24.30;59.50
37972;DHT22;23794;48.234;8.344;2022-08-07T16:12:32;24.20;59.60
37972;DHT22;23794;48.234;8.344;2022-08-07T16:18:08;24.00;59.40
37972;DHT22;23794;48.234;8.344;2022-08-07T16:21:08;23.90;59.10
37972;DHT22;23794;48.234;8.344;2022-08-07T16:24:47;23.80;59.00
37972;DHT22;23794;48.234;8.344;2022-08-07T16:27:02;23.60;59.30
37972;DHT22;23794;48.234;8.344;2022-08-07T16:30:26;23.60;59.80
37972;DHT22;23794;48.234;8.344;2022-08-07T16:32:58;23.80;59.60
37972;DHT22;23794;48.234;8.344;2022-08-07T16:35:46;23.60;59.90
37972;DHT22;23794;48.234;8.344;2022-08-07T16:38:40;23.60;59.90
37972;DHT22;23794;48.234;8.344;2022-08-07T16:44:26;23.50;59.80
37972;DHT22;23794;48.234;8.344;2022-08-07T16:47:38;23.50;59.70
37972;DHT22;23794;48.234;8.344;2022-08-07T16:53:23;23.40;60.10
37972;DHT22;23794;48.234;8.344;2022-08-07T16:58:54;23.20;60.70
37972;DHT22;23794;48.234;8.344;2022-08-07T17:01:50;23.20;60.60
37972;DHT22;23794;48.234;8.344;2022-08-07T17:17:43;23.10;61.60
37972;DHT22;23794;48.234;8.344;2022-08-07T17:20:16;23.10;61.70
37972;DHT22;23794;48.234;8.344;2022-08-07T17:25:24;23.10;61.40
37972;DHT22;23794;48.234;8.344;2022-08-07T17:28:13;23.00;61.80
37972;DHT22;23794;48.234;8.344;2022-08-07T17:33:49;22.90;61.60
37972;DHT22;23794;48.234;8.344;2022-08-07T17:36:38;22.80;61.80
37972;DHT22;23794;48.234;8.344;2022-08-07T17:42:20;22.70;62.30
37972;DHT22;23794;48.234;8.344;2022-08-07T17:44:53;22.70;62.30
37972;DHT22;23794;48.234;8.344;2022-08-07T17:50:16;22.60;62.50
37972;DHT22;23794;48.234;8.344;2022-08-07T17:52:47;22.70;62.70
37972;DHT22;23794;48.234;8.344;2022-08-07T17:55:22;22.60;63.70
37972;DHT22;23794;48.234;8.344;2022-08-07T17:58:30;22.60;62.80
37972;DHT22;23794;48.234;8.344;2022-08-07T18:00:58;22.50;63.10
37972;DHT22;23794;48.234;8.344;2022-08-07T18:03:50;22.50;63.60
37972;DHT22;23794;48.234;8.344;2022-08-07T18:06:38;22.50;63.80
37972;DHT22;23794;48.234;8.344;2022-08-07T18:09:08;22.40;64.10
37972;DHT22;23794;48.234;8.344;2022-08-07T18:11:43;22.30;64.40
37972;DHT22;23794;48.234;8.344;2022-08-07T18:17:38;22.20;64.60
37972;DHT22;23794;48.234;8.344;2022-08-07T18:20:32;22.10;65.00
37972;DHT22;23794;48.234;8.344;2022-08-07T18:23:24;22.00;65.00
37972;DHT22;23794;48.234;8.344;2022-08-07T18:26:13;22.00;65.10
37972;DHT22;23794;48.234;8.344;2022-08-07T18:29:01;22.00;66.00
37972;DHT22;23794;48.234;8.344;2022-08-07T18:31:33;22.00;64.90
37972;DHT22;23794;48.234;8.344;2022-08-07T18:34:17;21.90;65.00
37972;DHT22;23794;48.234;8.344;2022-08-07T18:37:10;21.90;65.40
37972;DHT22;23794;48.234;8.344;2022-08-07T18:40:12;21.80;66.00
37972;DHT22;23794;48.234;8.344;2022-08-07T18:43:03;21.70;66.70
37972;DHT22;23794;48.234;8.344;2022-08-07T18:45:44;21.50;66.80
37972;DHT22;23794;48.234;8.344;2022-08-07T18:48:42;21.40;67.90
37972;DHT22;23794;48.234;8.344;2022-08-07T18:54:25;21.10;68.20
37972;DHT22;23794;48.234;8.344;2022-08-07T18:57:07;21.10;68.60
37972;DHT22;23794;48.234;8.344;2022-08-07T19:13:57;20.60;70.20
37972;DHT22;23794;48.234;8.344;2022-08-07T19:16:39;20.50;71.00
37972;DHT22;23794;48.234;8.344;2022-08-07T19:24:43;20.30;71.10
37972;DHT22;23794;48.234;8.344;2022-08-07T19:27:24;20.20;71.70
37972;DHT22;23794;48.234;8.344;2022-08-07T19:30:14;20.20;71.20
37972;DHT22;23794;48.234;8.344;2022-08-07T19:33:05;20.10;72.60
37972;DHT22;23794;48.234;8.344;2022-08-07T19:35:38;20.10;72.10
37972;DHT22;23794;48.234;8.344;2022-08-07T19:38:09;20.00;72.60
37972;DHT22;23794;48.234;8.344;2022-08-07T19:40:41;19.90;73.50
37972;DHT22;23794;48.234;8.344;2022-08-07T19:43:17;19.80;73.60
37972;DHT22;23794;48.234;8.344;2022-08-07T19:46:05;19.80;73.40
37972;DHT22;23794;48.234;8.344;2022-08-07T19:51:10;19.70;73.20
37972;DHT22;23794;48.234;8.344;2022-08-07T19:53:50;19.70;74.10
37972;DHT22;23794;48.234;8.344;2022-08-07T19:56:40;19.60;74.70
37972;DHT22;23794;48.234;8.344;2022-08-07T19:59:28;19.50;74.40
37972;DHT22;23794;48.234;8.344;2022-08-07T20:02:09;19.40;75.40
37972;DHT22;23794;48.234;8.344;2022-08-07T20:04:45;19.30;74.10